createdAt,value
2017-01-11T00:00:58.787Z,0
2017-01-11T00:01:58.772Z,0
2017-01-11T00:02:58.746Z,0
2017-01-11T00:03:58.717Z,0
2017-01-11T00:04:58.704Z,0
2017-01-11T00:05:58.723Z,0
2017-01-11T00:06:58.655Z,0
2017-01-11T00:07:58.663Z,0
2017-01-11T00:08:59.020Z,0
2017-01-11T00:09:58.602Z,0
2017-01-11T00:10:58.975Z,0
2017-01-11T00:11:58.556Z,0
2017-01-11T00:12:58.539Z,0
2017-01-11T00:13:58.514Z,0
2017-01-11T00:14:58.512Z,0
2017-01-11T00:15:58.558Z,0
2017-01-11T00:16:58.476Z,0
2017-01-11T00:17:58.442Z,0
2017-01-11T00:18:58.413Z,0
2017-01-11T00:19:58.422Z,0
2017-01-11T00:20:58.404Z,0
2017-01-11T00:21:58.358Z,0
2017-01-11T00:22:58.334Z,0
2017-01-11T00:23:58.318Z,0
2017-01-11T00:24:58.291Z,0
2017-01-11T00:25:58.346Z,0
2017-01-11T00:26:58.252Z,0
2017-01-11T00:27:58.241Z,0
2017-01-11T00:28:58.211Z,0
2017-01-11T00:29:58.189Z,0
2017-01-11T00:30:58.170Z,0
2017-01-11T00:31:58.154Z,0
2017-01-11T00:32:58.129Z,0
2017-01-11T00:33:58.110Z,0
2017-01-11T00:34:58.091Z,0
2017-01-11T00:35:58.098Z,0
2017-01-11T00:36:58.054Z,0
2017-01-11T00:37:58.029Z,0
2017-01-11T00:38:58.010Z,0
2017-01-11T00:39:58.387Z,0
2017-01-11T00:40:57.979Z,0
2017-01-11T00:41:57.948Z,0
2017-01-11T00:42:57.942Z,0
2017-01-11T00:43:57.914Z,0
2017-01-11T00:44:58.282Z,0
2017-01-11T00:45:57.871Z,0
2017-01-11T00:46:57.848Z,0
2017-01-11T00:47:57.834Z,0
2017-01-11T00:48:57.808Z,0
2017-01-11T00:49:57.791Z,0
2017-01-11T00:50:57.774Z,0
2017-01-11T00:51:58.188Z,0
2017-01-11T00:52:57.730Z,0
2017-01-11T00:53:57.714Z,0
2017-01-11T00:54:57.687Z,0
2017-01-11T00:55:57.671Z,0
2017-01-11T00:56:57.647Z,0
2017-01-11T00:57:57.630Z,0
2017-01-11T00:58:57.604Z,0
2017-01-11T00:59:57.802Z,0
2017-01-11T01:00:57.569Z,0
2017-01-11T01:01:57.549Z,0
2017-01-11T01:02:57.529Z,0
2017-01-11T01:03:57.510Z,0
2017-01-11T01:04:57.492Z,0
2017-01-11T01:05:57.468Z,0
2017-01-11T01:06:57.444Z,0
2017-01-11T01:07:57.820Z,0
2017-01-11T01:08:57.406Z,0
2017-01-11T01:09:57.388Z,0
2017-01-11T01:10:57.368Z,0
2017-01-11T01:11:57.399Z,0
2017-01-11T01:12:57.330Z,0
2017-01-11T01:13:57.299Z,0
2017-01-11T01:14:57.290Z,0
2017-01-11T01:15:57.265Z,0
2017-01-11T01:16:57.248Z,0
2017-01-11T01:17:57.224Z,0
2017-01-11T01:18:57.606Z,0
2017-01-11T01:19:57.185Z,0
2017-01-11T01:20:57.166Z,0
2017-01-11T01:21:57.140Z,0
2017-01-11T01:22:57.122Z,0
2017-01-11T01:23:57.102Z,0
2017-01-11T01:24:57.100Z,0
2017-01-11T01:25:57.463Z,0
2017-01-11T01:26:57.050Z,0
2017-01-11T01:27:57.033Z,0
2017-01-11T01:28:57.001Z,0
2017-01-11T01:29:57.020Z,0
2017-01-11T01:30:56.960Z,0
2017-01-11T01:31:56.947Z,0
2017-01-11T01:32:56.916Z,0
2017-01-11T01:33:56.978Z,0
2017-01-11T01:34:56.879Z,0
2017-01-11T01:35:56.852Z,0
2017-01-11T01:36:56.838Z,0
2017-01-11T01:37:56.822Z,0
2017-01-11T01:38:56.892Z,0
2017-01-11T01:39:56.780Z,0
2017-01-11T01:40:56.749Z,0
2017-01-11T01:41:56.743Z,0
2017-01-11T01:42:56.774Z,0
2017-01-11T01:43:56.692Z,0
2017-01-11T01:44:56.679Z,0
2017-01-11T01:45:56.665Z,0
2017-01-11T01:46:56.630Z,0
2017-01-11T01:47:56.611Z,0
2017-01-11T01:48:56.598Z,0
2017-01-11T01:49:56.572Z,0
2017-01-11T01:50:56.556Z,0
2017-01-11T01:51:56.538Z,0
2017-01-11T01:52:56.515Z,0
2017-01-11T01:53:56.491Z,0
2017-01-11T01:54:56.470Z,0
2017-01-11T01:55:56.448Z,0
2017-01-11T01:56:56.828Z,0
2017-01-11T01:57:56.403Z,0
2017-01-11T01:58:56.388Z,0
2017-01-11T01:59:56.781Z,0
2017-01-11T02:00:56.345Z,0
2017-01-11T02:01:56.325Z,0
2017-01-11T02:02:56.306Z,0
2017-01-11T02:03:56.285Z,0
2017-01-11T02:04:56.655Z,0
2017-01-11T02:05:56.238Z,0
2017-01-11T02:06:56.220Z,0
2017-01-11T02:07:56.203Z,0
2017-01-11T02:08:56.185Z,0
2017-01-11T02:09:56.159Z,0
2017-01-11T02:10:56.149Z,0
2017-01-11T02:11:56.114Z,0
2017-01-11T02:12:56.097Z,0
2017-01-11T02:13:56.081Z,0
2017-01-11T02:14:56.053Z,0
2017-01-11T02:15:56.036Z,0
2017-01-11T02:16:56.026Z,0
2017-01-11T02:17:56.000Z,0
2017-01-11T02:18:55.996Z,0
2017-01-11T02:19:55.955Z,0
2017-01-11T02:20:55.930Z,0
2017-01-11T02:21:56.316Z,0
2017-01-11T02:22:55.891Z,0
2017-01-11T02:23:55.872Z,0
2017-01-11T02:24:55.870Z,0
2017-01-11T02:25:55.826Z,0
2017-01-11T02:26:55.806Z,0
2017-01-11T02:27:55.791Z,0
2017-01-11T02:28:55.773Z,0
2017-01-11T02:29:56.145Z,0
2017-01-11T02:30:55.738Z,0
2017-01-11T02:31:55.701Z,0
2017-01-11T02:32:55.689Z,0
2017-01-11T02:33:55.664Z,0
2017-01-11T02:34:55.643Z,0
2017-01-11T02:35:55.621Z,0
2017-01-11T02:36:55.613Z,0
2017-01-11T02:37:55.610Z,0
2017-01-11T02:38:55.559Z,0
2017-01-11T02:39:55.554Z,0
2017-01-11T02:40:55.529Z,0
2017-01-11T02:41:55.497Z,0
2017-01-11T02:42:55.478Z,0
2017-01-11T02:43:55.462Z,0
2017-01-11T02:44:55.478Z,0
2017-01-11T02:45:55.445Z,0
2017-01-11T02:46:55.404Z,0
2017-01-11T02:47:55.380Z,0
2017-01-11T02:48:55.369Z,0
2017-01-11T02:49:55.769Z,0
2017-01-11T02:50:55.321Z,0
2017-01-11T02:51:55.306Z,0
2017-01-11T02:52:55.272Z,0
2017-01-11T02:53:55.258Z,0
2017-01-11T02:54:55.233Z,0
2017-01-11T02:55:55.614Z,0
2017-01-11T02:56:55.593Z,0
2017-01-11T02:57:55.172Z,0
2017-01-11T02:58:55.152Z,0
2017-01-11T02:59:55.337Z,0
2017-01-11T03:00:55.114Z,0
2017-01-11T03:01:55.093Z,0
2017-01-11T03:02:55.075Z,0
2017-01-11T03:03:55.047Z,0
2017-01-11T03:04:55.034Z,0
2017-01-11T03:05:55.007Z,0
2017-01-11T03:06:54.990Z,0
2017-01-11T03:07:54.977Z,0
2017-01-11T03:08:54.948Z,0
2017-01-11T03:09:54.931Z,0
2017-01-11T03:10:54.898Z,0
2017-01-11T03:11:54.887Z,0
2017-01-11T03:12:54.873Z,0
2017-01-11T03:13:54.849Z,0
2017-01-11T03:14:54.832Z,0
2017-01-11T03:15:54.806Z,0
2017-01-11T03:16:54.789Z,0
2017-01-11T03:17:54.769Z,0
2017-01-11T03:18:54.751Z,0
2017-01-11T03:19:54.725Z,0
2017-01-11T03:20:54.704Z,0
2017-01-11T03:21:54.690Z,0
2017-01-11T03:22:54.663Z,0
2017-01-11T03:23:54.649Z,0
2017-01-11T03:24:54.630Z,0
2017-01-11T03:25:54.615Z,0
2017-01-11T03:26:54.586Z,0
2017-01-11T03:27:54.568Z,0
2017-01-11T03:28:54.540Z,0
2017-01-11T03:29:54.525Z,0
2017-01-11T03:30:54.505Z,0
2017-01-11T03:31:54.492Z,0
2017-01-11T03:32:54.475Z,0
2017-01-11T03:33:54.434Z,0
2017-01-11T03:34:54.418Z,0
2017-01-11T03:35:54.405Z,0
2017-01-11T03:36:54.375Z,0
2017-01-11T03:37:54.362Z,0
2017-01-11T03:38:54.379Z,0
2017-01-11T03:39:54.323Z,0
2017-01-11T03:40:54.294Z,0
2017-01-11T03:41:54.676Z,0
2017-01-11T03:42:54.293Z,0
2017-01-11T03:43:54.239Z,0
2017-01-11T03:44:54.212Z,0
2017-01-11T03:45:54.203Z,0
2017-01-11T03:46:54.208Z,0
2017-01-11T03:47:54.160Z,0
2017-01-11T03:48:54.137Z,0
2017-01-11T03:49:54.119Z,0
2017-01-11T03:50:54.100Z,0
2017-01-11T03:51:54.076Z,0
2017-01-11T03:52:54.053Z,0
2017-01-11T03:53:54.040Z,0
2017-01-11T03:54:54.066Z,0
2017-01-11T03:55:53.988Z,0
2017-01-11T03:56:53.970Z,0
2017-01-11T03:57:53.951Z,0
2017-01-11T03:58:53.934Z,0
2017-01-11T03:59:54.305Z,0
2017-01-11T04:00:53.891Z,0
2017-01-11T04:01:53.877Z,0
2017-01-11T04:02:53.851Z,0
2017-01-11T04:03:53.826Z,0
2017-01-11T04:04:53.826Z,0
2017-01-11T04:05:53.786Z,0
2017-01-11T04:06:53.773Z,0
2017-01-11T04:07:53.783Z,0
2017-01-11T04:08:53.795Z,0
2017-01-11T04:09:53.715Z,0
2017-01-11T04:10:53.690Z,0
2017-01-11T04:11:53.672Z,0
2017-01-11T04:12:53.706Z,0
2017-01-11T04:13:53.633Z,0
2017-01-11T04:14:53.659Z,0
2017-01-11T04:15:53.594Z,0
2017-01-11T04:16:53.570Z,0
2017-01-11T04:17:53.544Z,0
2017-01-11T04:18:53.533Z,0
2017-01-11T04:19:53.513Z,0
2017-01-11T04:20:53.494Z,0
2017-01-11T04:21:53.466Z,0
2017-01-11T04:22:53.447Z,0
2017-01-11T04:23:53.433Z,0
2017-01-11T04:24:53.409Z,0
2017-01-11T04:25:53.387Z,0
2017-01-11T04:26:53.372Z,0
2017-01-11T04:27:53.342Z,0
2017-01-11T04:28:53.325Z,0
2017-01-11T04:29:53.308Z,0
2017-01-11T04:30:53.354Z,0
2017-01-11T04:31:53.274Z,0
2017-01-11T04:32:53.241Z,0
2017-01-11T04:33:53.223Z,0
2017-01-11T04:34:53.205Z,0
2017-01-11T04:35:53.202Z,0
2017-01-11T04:36:53.176Z,0
2017-01-11T04:37:53.153Z,0
2017-01-11T04:38:53.122Z,0
2017-01-11T04:39:53.108Z,0
2017-01-11T04:40:53.095Z,0
2017-01-11T04:41:53.067Z,0
2017-01-11T04:42:53.045Z,0
2017-01-11T04:43:53.023Z,0
2017-01-11T04:44:52.998Z,0
2017-01-11T04:45:52.977Z,0
2017-01-11T04:46:52.963Z,0
2017-01-11T04:47:52.940Z,0
2017-01-11T04:48:52.924Z,0
2017-01-11T04:49:52.893Z,0
2017-01-11T04:50:52.881Z,0
2017-01-11T04:51:52.858Z,0
2017-01-11T04:52:52.844Z,0
2017-01-11T04:53:53.210Z,0
2017-01-11T04:54:52.807Z,0
2017-01-11T04:55:53.175Z,0
2017-01-11T04:56:52.759Z,0
2017-01-11T04:57:52.741Z,0
2017-01-11T04:58:52.717Z,0
2017-01-11T04:59:53.126Z,0
2017-01-11T05:00:52.704Z,0
2017-01-11T05:01:53.042Z,0
2017-01-11T05:02:52.685Z,0
2017-01-11T05:03:52.612Z,0
2017-01-11T05:04:52.606Z,0
2017-01-11T05:05:52.968Z,0
2017-01-11T05:06:52.552Z,0
2017-01-11T05:07:52.731Z,0
2017-01-11T05:08:52.515Z,0
2017-01-11T05:09:52.496Z,0
2017-01-11T05:10:52.476Z,0
2017-01-11T05:11:52.490Z,0
2017-01-11T05:12:52.434Z,0
2017-01-11T05:13:52.417Z,0
2017-01-11T05:14:52.399Z,0
2017-01-11T05:15:52.370Z,0
2017-01-11T05:16:52.351Z,0
2017-01-11T05:17:52.333Z,0
2017-01-11T05:18:52.306Z,0
2017-01-11T05:19:52.286Z,0
2017-01-11T05:20:52.266Z,0
2017-01-11T05:21:52.251Z,0
2017-01-11T05:22:52.227Z,0
2017-01-11T05:23:52.206Z,0
2017-01-11T05:24:52.186Z,0
2017-01-11T05:25:52.165Z,0
2017-01-11T05:26:52.190Z,0
2017-01-11T05:27:52.128Z,0
2017-01-11T05:28:52.107Z,0
2017-01-11T05:29:52.095Z,0
2017-01-11T05:30:52.093Z,0
2017-01-11T05:31:52.045Z,0
2017-01-11T05:32:52.025Z,0
2017-01-11T05:33:52.003Z,0
2017-01-11T05:34:52.010Z,0
2017-01-11T05:35:51.960Z,0
2017-01-11T05:36:51.947Z,0
2017-01-11T05:37:51.939Z,0
2017-01-11T05:38:51.917Z,0
2017-01-11T05:39:51.881Z,0
2017-01-11T05:40:51.860Z,0
2017-01-11T05:41:51.841Z,0
2017-01-11T05:42:51.818Z,0
2017-01-11T05:43:51.851Z,0
2017-01-11T05:44:52.173Z,0
2017-01-11T05:45:52.156Z,0
2017-01-11T05:46:51.740Z,0
2017-01-11T05:47:51.715Z,0
2017-01-11T05:48:51.717Z,0
2017-01-11T05:49:51.673Z,0
2017-01-11T05:50:51.643Z,0
2017-01-11T05:51:51.627Z,0
2017-01-11T05:52:51.658Z,0
2017-01-11T05:53:52.055Z,0
2017-01-11T05:54:51.978Z,0
2017-01-11T05:55:51.616Z,0
2017-01-11T05:56:51.542Z,0
2017-01-11T05:57:51.506Z,0
2017-01-11T05:58:51.496Z,0
2017-01-11T05:59:51.468Z,0
2017-01-11T06:00:51.444Z,0
2017-01-11T06:01:51.423Z,0
2017-01-11T06:02:51.403Z,0
2017-01-11T06:03:51.381Z,0
2017-01-11T06:04:51.354Z,0
2017-01-11T06:05:51.336Z,0
2017-01-11T06:06:51.321Z,0
2017-01-11T06:07:51.302Z,0
2017-01-11T06:08:51.277Z,0
2017-01-11T06:09:51.265Z,0
2017-01-11T06:10:51.235Z,0
2017-01-11T06:11:51.215Z,0
2017-01-11T06:12:51.194Z,0
2017-01-11T06:13:51.168Z,0
2017-01-11T06:14:51.157Z,0
2017-01-11T06:15:51.125Z,0
2017-01-11T06:16:51.107Z,0
2017-01-11T06:17:51.137Z,0
2017-01-11T06:18:51.067Z,0
2017-01-11T06:19:51.051Z,0
2017-01-11T06:20:51.031Z,0
2017-01-11T06:21:50.999Z,0
2017-01-11T06:22:50.978Z,0
2017-01-11T06:23:51.008Z,0
2017-01-11T06:24:51.005Z,0
2017-01-11T06:25:50.928Z,0
2017-01-11T06:26:50.903Z,0
2017-01-11T06:27:50.881Z,0
2017-01-11T06:28:50.853Z,0
2017-01-11T06:29:50.831Z,0
2017-01-11T06:30:50.815Z,0
2017-01-11T06:31:50.824Z,0
2017-01-11T06:32:50.777Z,0
2017-01-11T06:33:50.747Z,0
2017-01-11T06:34:50.735Z,0
2017-01-11T06:35:51.112Z,0
2017-01-11T06:36:51.093Z,0
2017-01-11T06:37:50.670Z,0
2017-01-11T06:38:50.650Z,0
2017-01-11T06:39:51.097Z,0
2017-01-11T06:40:50.663Z,0
2017-01-11T06:41:50.595Z,0
2017-01-11T06:42:50.560Z,0
2017-01-11T06:43:50.547Z,0
2017-01-11T06:44:50.575Z,0
2017-01-11T06:45:50.531Z,0
2017-01-11T06:46:50.479Z,0
2017-01-11T06:47:50.488Z,0
2017-01-11T06:48:50.450Z,0
2017-01-11T06:49:50.420Z,0
2017-01-11T06:50:50.408Z,0
2017-01-11T06:51:50.388Z,0
2017-01-11T06:52:50.361Z,0
2017-01-11T06:53:50.381Z,0
2017-01-11T06:54:50.319Z,0
2017-01-11T06:55:50.306Z,0
2017-01-11T06:56:50.276Z,0
2017-01-11T06:57:50.257Z,0
2017-01-11T06:58:50.231Z,0
2017-01-11T06:59:50.620Z,0
2017-01-11T07:00:50.194Z,0
2017-01-11T07:01:50.181Z,0
2017-01-11T07:02:50.155Z,0
2017-01-11T07:03:50.128Z,0
2017-01-11T07:04:50.124Z,0
2017-01-11T07:05:50.090Z,0
2017-01-11T07:06:50.078Z,0
2017-01-11T07:07:50.045Z,0
2017-01-11T07:08:50.026Z,0
2017-01-11T07:09:50.007Z,0
2017-01-11T07:10:49.998Z,0
2017-01-11T07:11:49.972Z,0
2017-01-11T07:12:49.952Z,0
2017-01-11T07:13:49.936Z,0
2017-01-11T07:14:49.906Z,0
2017-01-11T07:15:49.891Z,0
2017-01-11T07:16:49.861Z,0
2017-01-11T07:17:49.843Z,0
2017-01-11T07:18:49.823Z,0
2017-01-11T07:19:49.818Z,0
2017-01-11T07:20:49.785Z,0
2017-01-11T07:21:49.761Z,0
2017-01-11T07:22:50.140Z,0
2017-01-11T07:23:49.718Z,0
2017-01-11T07:24:49.700Z,0
2017-01-11T07:25:49.737Z,0
2017-01-11T07:26:49.699Z,0
2017-01-11T07:27:50.036Z,0
2017-01-11T07:28:49.623Z,0
2017-01-11T07:29:49.631Z,0
2017-01-11T07:30:49.602Z,0
2017-01-11T07:31:49.557Z,0
2017-01-11T07:32:49.542Z,0
2017-01-11T07:33:49.911Z,0
2017-01-11T07:34:49.498Z,0
2017-01-11T07:35:49.470Z,0
2017-01-11T07:36:49.851Z,0
2017-01-11T07:37:49.432Z,0
2017-01-11T07:38:49.414Z,0
2017-01-11T07:39:49.391Z,0
2017-01-11T07:40:49.368Z,0
2017-01-11T07:41:49.425Z,5
2017-01-11T07:42:49.331Z,5
2017-01-11T07:43:49.706Z,5
2017-01-11T07:44:49.319Z,0
2017-01-11T07:45:49.270Z,0
2017-01-11T07:46:49.249Z,0
2017-01-11T07:47:49.228Z,0
2017-01-11T07:48:49.205Z,0
2017-01-11T07:49:49.595Z,0
2017-01-11T07:50:49.584Z,0
2017-01-11T07:51:49.171Z,5
2017-01-11T07:52:49.142Z,5
2017-01-11T07:53:49.096Z,5
2017-01-11T07:54:49.090Z,5
2017-01-11T07:55:49.058Z,5
2017-01-11T07:56:49.045Z,5
2017-01-11T07:57:49.028Z,5
2017-01-11T07:58:49.001Z,5
2017-01-11T07:59:48.987Z,5
2017-01-11T08:00:48.980Z,5
2017-01-11T08:01:48.943Z,5
2017-01-11T08:02:48.916Z,5
2017-01-11T08:03:48.897Z,5
2017-01-11T08:04:48.924Z,5
2017-01-11T08:05:48.909Z,5
2017-01-11T08:06:48.856Z,5
2017-01-11T08:07:48.823Z,10
2017-01-11T08:08:49.200Z,10
2017-01-11T08:09:48.780Z,10
2017-01-11T08:10:48.766Z,10
2017-01-11T08:11:48.737Z,10
2017-01-11T08:12:48.727Z,15
2017-01-11T08:13:49.093Z,15
2017-01-11T08:14:48.686Z,15
2017-01-11T08:15:48.664Z,20
2017-01-11T08:16:48.696Z,15
2017-01-11T08:17:48.625Z,20
2017-01-11T08:18:48.613Z,20
2017-01-11T08:19:48.582Z,20
2017-01-11T08:20:48.560Z,20
2017-01-11T08:21:48.543Z,20
2017-01-11T08:22:48.545Z,20
2017-01-11T08:23:48.497Z,20
2017-01-11T08:24:48.915Z,15
2017-01-11T08:25:48.460Z,15
2017-01-11T08:26:48.439Z,20
2017-01-11T08:27:48.418Z,25
2017-01-11T08:28:48.398Z,20
2017-01-11T08:29:48.378Z,25
2017-01-11T08:30:48.365Z,25
2017-01-11T08:31:48.384Z,25
2017-01-11T08:32:48.324Z,15
2017-01-11T08:33:48.302Z,15
2017-01-11T08:34:48.547Z,20
2017-01-11T08:35:48.274Z,25
2017-01-11T08:36:48.246Z,30
2017-01-11T08:37:48.228Z,30
2017-01-11T08:38:48.640Z,25
2017-01-11T08:39:48.212Z,30
2017-01-11T08:40:48.165Z,45
2017-01-11T08:41:48.148Z,40
2017-01-11T08:42:48.123Z,40
2017-01-11T08:43:48.108Z,50
2017-01-11T08:44:48.085Z,40
2017-01-11T08:45:48.094Z,30
2017-01-11T08:46:48.045Z,25
2017-01-11T08:47:48.033Z,25
2017-01-11T08:48:48.001Z,25
2017-01-11T08:49:48.406Z,30
2017-01-11T08:50:47.980Z,35
2017-01-11T08:51:47.949Z,45
2017-01-11T08:52:47.924Z,45
2017-01-11T08:53:48.301Z,30
2017-01-11T08:54:47.893Z,20
2017-01-11T08:55:47.864Z,20
2017-01-11T08:56:47.860Z,20
2017-01-11T08:57:48.288Z,30
2017-01-11T08:58:47.805Z,35
2017-01-11T08:59:47.794Z,25
2017-01-11T09:00:47.781Z,20
2017-01-11T09:01:47.786Z,25
2017-01-11T09:02:47.732Z,30
2017-01-11T09:03:47.712Z,30
2017-01-11T09:04:47.693Z,30
2017-01-11T09:05:47.679Z,30
2017-01-11T09:06:47.653Z,30
2017-01-11T09:07:47.656Z,40
2017-01-11T09:08:47.616Z,30
2017-01-11T09:09:47.995Z,25
2017-01-11T09:10:47.578Z,25
2017-01-11T09:11:47.566Z,25
2017-01-11T09:12:47.562Z,25
2017-01-11T09:13:47.518Z,25
2017-01-11T09:14:47.496Z,20
2017-01-11T09:15:47.485Z,15
2017-01-11T09:16:47.456Z,20
2017-01-11T09:17:47.438Z,30
2017-01-11T09:18:47.422Z,35
2017-01-11T09:19:47.400Z,35
2017-01-11T09:20:47.375Z,35
2017-01-11T09:21:47.363Z,30
2017-01-11T09:22:47.338Z,30
2017-01-11T09:23:47.341Z,35
2017-01-11T09:24:47.331Z,35
2017-01-11T09:25:47.286Z,35
2017-01-11T09:26:47.297Z,25
2017-01-11T09:27:47.651Z,30
2017-01-11T09:28:47.222Z,30
2017-01-11T09:29:47.200Z,25
2017-01-11T09:30:47.213Z,30
2017-01-11T09:31:47.152Z,30
2017-01-11T09:32:47.146Z,25
2017-01-11T09:33:47.122Z,25
2017-01-11T09:34:47.098Z,25
2017-01-11T09:35:47.079Z,25
2017-01-11T09:36:47.060Z,20
2017-01-11T09:37:47.044Z,20
2017-01-11T09:38:47.020Z,25
2017-01-11T09:39:47.001Z,25
2017-01-11T09:40:46.984Z,25
2017-01-11T09:41:46.958Z,30
2017-01-11T09:42:46.937Z,30
2017-01-11T09:43:46.921Z,25
2017-01-11T09:44:46.900Z,20
2017-01-11T09:45:46.881Z,25
2017-01-11T09:46:46.859Z,25
2017-01-11T09:47:46.848Z,30
2017-01-11T09:48:46.842Z,30
2017-01-11T09:49:46.810Z,40
2017-01-11T09:50:46.779Z,45
2017-01-11T09:51:46.760Z,35
2017-01-11T09:52:46.740Z,40
2017-01-11T09:53:46.724Z,40
2017-01-11T09:54:46.703Z,35
2017-01-11T09:55:46.684Z,40
2017-01-11T09:56:46.662Z,50
2017-01-11T09:57:46.640Z,55
2017-01-11T09:58:46.620Z,40
2017-01-11T09:59:47.006Z,30
2017-01-11T10:00:46.587Z,35
2017-01-11T10:01:46.564Z,50
2017-01-11T10:02:46.544Z,45
2017-01-11T10:03:46.527Z,50
2017-01-11T10:04:46.906Z,40
2017-01-11T10:05:46.880Z,45
2017-01-11T10:06:46.879Z,45
2017-01-11T10:07:46.444Z,55
2017-01-11T10:08:46.479Z,55
2017-01-11T10:09:46.400Z,55
2017-01-11T10:10:46.405Z,45
2017-01-11T10:11:46.372Z,45
2017-01-11T10:12:46.773Z,35
2017-01-11T10:13:46.372Z,50
2017-01-11T10:14:46.299Z,50
2017-01-11T10:15:46.281Z,50
2017-01-11T10:16:46.665Z,45
2017-01-11T10:17:46.243Z,40
2017-01-11T10:18:46.220Z,35
2017-01-11T10:19:46.212Z,50
2017-01-11T10:20:46.185Z,50
2017-01-11T10:21:46.169Z,60
2017-01-11T10:22:46.153Z,50
2017-01-11T10:23:46.132Z,50
2017-01-11T10:24:46.100Z,65
2017-01-11T10:25:46.082Z,55
2017-01-11T10:26:46.063Z,40
2017-01-11T10:27:46.041Z,35
2017-01-11T10:28:46.025Z,50
2017-01-11T10:29:45.998Z,45
2017-01-11T10:30:45.980Z,45
2017-01-11T10:31:45.962Z,55
2017-01-11T10:32:45.944Z,35
2017-01-11T10:33:45.917Z,30
2017-01-11T10:34:45.901Z,30
2017-01-11T10:35:45.880Z,30
2017-01-11T10:36:45.857Z,30
2017-01-11T10:37:46.265Z,25
2017-01-11T10:38:45.815Z,35
2017-01-11T10:39:45.805Z,35
2017-01-11T10:40:46.171Z,35
2017-01-11T10:41:45.762Z,30
2017-01-11T10:42:45.765Z,30
2017-01-11T10:43:45.725Z,30
2017-01-11T10:44:45.696Z,35
2017-01-11T10:45:45.682Z,40
2017-01-11T10:46:45.650Z,35
2017-01-11T10:47:45.642Z,35
2017-01-11T10:48:45.616Z,35
2017-01-11T10:49:45.597Z,30
2017-01-11T10:50:45.578Z,30
2017-01-11T10:51:45.565Z,40
2017-01-11T10:52:45.554Z,40
2017-01-11T10:53:45.523Z,35
2017-01-11T10:54:45.499Z,30
2017-01-11T10:55:45.479Z,25
2017-01-11T10:56:45.471Z,25
2017-01-11T10:57:45.440Z,25
2017-01-11T10:58:45.421Z,30
2017-01-11T10:59:45.391Z,35
2017-01-11T11:00:45.575Z,40
2017-01-11T11:01:45.353Z,50
2017-01-11T11:02:45.388Z,40
2017-01-11T11:03:45.318Z,35
2017-01-11T11:04:45.301Z,35
2017-01-11T11:05:45.276Z,30
2017-01-11T11:06:45.250Z,30
2017-01-11T11:07:45.235Z,30
2017-01-11T11:08:45.219Z,25
2017-01-11T11:09:45.193Z,30
2017-01-11T11:10:45.568Z,30
2017-01-11T11:11:45.555Z,25
2017-01-11T11:12:45.163Z,20
2017-01-11T11:13:45.118Z,20
2017-01-11T11:14:45.090Z,15
2017-01-11T11:15:45.075Z,20
2017-01-11T11:16:45.059Z,15
2017-01-11T11:17:45.037Z,20
2017-01-11T11:18:45.010Z,15
2017-01-11T11:19:45.028Z,15
2017-01-11T11:20:44.985Z,15
2017-01-11T11:21:44.955Z,15
2017-01-11T11:22:45.329Z,20
2017-01-11T11:23:44.915Z,20
2017-01-11T11:24:44.896Z,20
2017-01-11T11:25:44.877Z,15
2017-01-11T11:26:44.856Z,15
2017-01-11T11:27:44.829Z,15
2017-01-11T11:28:44.829Z,20
2017-01-11T11:29:44.798Z,20
2017-01-11T11:30:44.775Z,25
2017-01-11T11:31:44.753Z,25
2017-01-11T11:32:44.748Z,30
2017-01-11T11:33:44.715Z,40
2017-01-11T11:34:44.701Z,50
2017-01-11T11:35:44.674Z,35
2017-01-11T11:36:44.659Z,35
2017-01-11T11:37:44.638Z,30
2017-01-11T11:38:45.019Z,25
2017-01-11T11:39:44.647Z,25
2017-01-11T11:40:44.578Z,35
2017-01-11T11:41:44.555Z,25
2017-01-11T11:42:44.541Z,20
2017-01-11T11:43:44.512Z,20
2017-01-11T11:44:44.500Z,20
2017-01-11T11:45:44.475Z,15
2017-01-11T11:46:44.456Z,25
2017-01-11T11:47:44.438Z,20
2017-01-11T11:48:44.453Z,25
2017-01-11T11:49:44.403Z,25
2017-01-11T11:50:44.435Z,15
2017-01-11T11:51:44.361Z,10
2017-01-11T11:52:44.358Z,10
2017-01-11T11:53:44.719Z,15
2017-01-11T11:54:44.359Z,15
2017-01-11T11:55:44.284Z,10
2017-01-11T11:56:44.295Z,15
2017-01-11T11:57:44.245Z,20
2017-01-11T11:58:44.231Z,15
2017-01-11T11:59:44.201Z,10
2017-01-11T12:00:44.191Z,10
2017-01-11T12:01:44.165Z,10
2017-01-11T12:02:44.156Z,10
2017-01-11T12:03:44.142Z,10
2017-01-11T12:04:44.121Z,15
2017-01-11T12:05:44.087Z,20
2017-01-11T12:06:44.065Z,15
2017-01-11T12:07:44.051Z,20
2017-01-11T12:08:44.034Z,25
2017-01-11T12:09:44.011Z,30
2017-01-11T12:10:43.990Z,25
2017-01-11T12:11:43.970Z,25
2017-01-11T12:12:44.363Z,30
2017-01-11T12:13:43.958Z,35
2017-01-11T12:14:43.914Z,45
2017-01-11T12:15:43.907Z,40
2017-01-11T12:16:43.874Z,20
2017-01-11T12:17:43.854Z,25
2017-01-11T12:18:43.849Z,30
2017-01-11T12:19:43.817Z,20
2017-01-11T12:20:43.805Z,20
2017-01-11T12:21:43.788Z,20
2017-01-11T12:22:43.766Z,20
2017-01-11T12:23:43.743Z,20
2017-01-11T12:24:44.123Z,15
2017-01-11T12:25:43.704Z,10
2017-01-11T12:26:43.699Z,10
2017-01-11T12:27:43.670Z,10
2017-01-11T12:28:43.642Z,10
2017-01-11T12:29:43.640Z,10
2017-01-11T12:30:44.008Z,15
2017-01-11T12:31:43.591Z,10
2017-01-11T12:32:43.579Z,15
2017-01-11T12:33:43.549Z,15
2017-01-11T12:34:43.528Z,10
2017-01-11T12:35:43.508Z,15
2017-01-11T12:36:43.493Z,10
2017-01-11T12:37:43.474Z,10
2017-01-11T12:38:43.457Z,10
2017-01-11T12:39:43.447Z,10
2017-01-11T12:40:43.415Z,15
2017-01-11T12:41:43.800Z,15
2017-01-11T12:42:43.380Z,25
2017-01-11T12:43:43.366Z,25
2017-01-11T12:44:43.373Z,20
2017-01-11T12:45:43.745Z,25
2017-01-11T12:46:43.307Z,25
2017-01-11T12:47:43.285Z,25
2017-01-11T12:48:43.270Z,20
2017-01-11T12:49:43.256Z,20
2017-01-11T12:50:43.232Z,25
2017-01-11T12:51:43.208Z,25
2017-01-11T12:52:43.215Z,30
2017-01-11T12:53:43.196Z,35
2017-01-11T12:54:43.156Z,40
2017-01-11T12:55:43.139Z,35
2017-01-11T12:56:43.111Z,35
2017-01-11T12:57:43.500Z,45
2017-01-11T12:58:43.085Z,50
2017-01-11T12:59:43.057Z,55
2017-01-11T13:00:43.247Z,65
2017-01-11T13:01:43.025Z,85
2017-01-11T13:02:43.004Z,155
2017-01-11T13:03:42.990Z,230
2017-01-11T13:04:42.969Z,215
2017-01-11T13:05:42.953Z,235
2017-01-11T13:06:42.943Z,305
2017-01-11T13:07:42.919Z,240
2017-01-11T13:08:42.909Z,200
2017-01-11T13:09:42.881Z,250
2017-01-11T13:10:42.857Z,345
2017-01-11T13:11:42.849Z,320
2017-01-11T13:12:42.834Z,385
2017-01-11T13:13:42.820Z,295
2017-01-11T13:14:42.798Z,300
2017-01-11T13:15:42.785Z,175
2017-01-11T13:16:42.773Z,140
2017-01-11T13:17:43.167Z,125
2017-01-11T13:18:42.740Z,105
2017-01-11T13:19:43.117Z,95
2017-01-11T13:20:42.707Z,85
2017-01-11T13:21:42.684Z,80
2017-01-11T13:22:42.680Z,70
2017-01-11T13:23:43.062Z,65
2017-01-11T13:24:43.041Z,60
2017-01-11T13:25:42.626Z,60
2017-01-11T13:26:42.666Z,55
2017-01-11T13:27:42.602Z,55
2017-01-11T13:28:42.609Z,55
2017-01-11T13:29:42.559Z,55
2017-01-11T13:30:42.556Z,55
2017-01-11T13:31:42.533Z,55
2017-01-11T13:32:42.521Z,55
2017-01-11T13:33:42.493Z,45
2017-01-11T13:34:42.483Z,40
2017-01-11T13:35:42.467Z,30
2017-01-11T13:36:42.461Z,25
2017-01-11T13:37:42.428Z,25
2017-01-11T13:38:42.429Z,20
2017-01-11T13:39:42.400Z,20
2017-01-11T13:40:42.391Z,15
2017-01-11T13:41:42.373Z,15
2017-01-11T13:42:42.379Z,15
2017-01-11T13:43:42.342Z,10
2017-01-11T13:44:42.335Z,15
2017-01-11T13:45:42.303Z,15
2017-01-11T13:46:42.290Z,15
2017-01-11T13:47:42.276Z,10
2017-01-11T13:48:42.251Z,10
2017-01-11T13:49:42.234Z,20
2017-01-11T13:50:42.621Z,20
2017-01-11T13:51:42.201Z,25
2017-01-11T13:52:42.202Z,25
2017-01-11T13:53:42.162Z,25
2017-01-11T13:54:42.167Z,30
2017-01-11T13:55:42.125Z,25
2017-01-11T13:56:42.107Z,20
2017-01-11T13:57:42.495Z,20
2017-01-11T13:58:42.080Z,25
2017-01-11T13:59:42.057Z,20
2017-01-11T14:00:42.034Z,25
2017-01-11T14:01:42.419Z,25
2017-01-11T14:02:42.018Z,25
2017-01-11T14:03:42.004Z,25
2017-01-11T14:04:41.963Z,20
2017-01-11T14:05:41.948Z,20
2017-01-11T14:06:41.932Z,25
2017-01-11T14:07:41.909Z,25
2017-01-11T14:08:41.899Z,25
2017-01-11T14:09:41.875Z,25
2017-01-11T14:10:41.859Z,35
2017-01-11T14:11:41.852Z,40
2017-01-11T14:12:41.823Z,35
2017-01-11T14:13:41.809Z,35
2017-01-11T14:14:41.790Z,40
2017-01-11T14:15:41.780Z,35
2017-01-11T14:16:41.758Z,40
2017-01-11T14:17:41.741Z,40
2017-01-11T14:18:41.715Z,40
2017-01-11T14:19:42.101Z,40
2017-01-11T14:20:41.677Z,45
2017-01-11T14:21:41.668Z,50
2017-01-11T14:22:41.641Z,45
2017-01-11T14:23:41.623Z,45
2017-01-11T14:24:42.002Z,45
2017-01-11T14:25:41.595Z,45
2017-01-11T14:26:41.566Z,40
2017-01-11T14:27:41.543Z,35
2017-01-11T14:28:41.534Z,30
2017-01-11T14:29:41.516Z,25
2017-01-11T14:30:41.499Z,25
2017-01-11T14:31:41.473Z,30
2017-01-11T14:32:41.462Z,25